createdAt,value
2018-02-06T00:00:00.263Z,13.87
2018-02-06T00:02:28.673Z,16.77
2018-02-06T00:04:57.086Z,16.30
2018-02-06T00:07:25.826Z,17.30
2018-02-06T00:09:54.217Z,14.53
2018-02-06T00:12:22.838Z,15.20
2018-02-06T00:14:51.275Z,16.43
2018-02-06T00:17:19.715Z,16.60
2018-02-06T00:19:48.115Z,17.27
2018-02-06T00:22:16.370Z,16.70
2018-02-06T00:24:44.757Z,16.60
2018-02-06T00:27:14.220Z,15.20
2018-02-06T00:29:42.892Z,16.45
2018-02-06T00:32:12.050Z,17.83
2018-02-06T00:34:40.614Z,16.80
2018-02-06T00:37:08.998Z,16.27
2018-02-06T00:39:37.386Z,16.10
2018-02-06T00:42:06.822Z,16.02
2018-02-06T00:44:35.478Z,17.00
2018-02-06T00:47:03.833Z,16.43
2018-02-06T00:49:32.209Z,15.50
2018-02-06T00:52:00.915Z,16.40
2018-02-06T00:54:29.615Z,16.37
2018-02-06T00:56:57.814Z,16.40
2018-02-06T00:59:26.481Z,17.77
2018-02-06T01:01:55.145Z,18.17
2018-02-06T01:04:24.571Z,14.65
2018-02-06T01:06:53.777Z,17.50
2018-02-06T01:09:22.261Z,16.90
2018-02-06T01:11:50.653Z,16.60
2018-02-06T01:14:19.287Z,18.97
2018-02-06T01:16:48.783Z,16.90
2018-02-06T01:19:17.165Z,15.77
2018-02-06T01:21:45.557Z,17.33
2018-02-06T01:24:14.222Z,17.17
2018-02-06T01:26:42.808Z,16.13
2018-02-06T01:29:11.214Z,17.40
2018-02-06T01:31:39.874Z,17.33
2018-02-06T01:34:08.262Z,18.60
2018-02-06T01:36:36.830Z,16.40
2018-02-06T01:39:04.558Z,17.60
2018-02-06T01:41:33.270Z,17.20
2018-02-06T01:44:02.788Z,18.33
2018-02-06T01:46:31.462Z,15.65
2018-02-06T01:49:00.890Z,16.17
2018-02-06T01:51:29.284Z,16.23
2018-02-06T01:53:58.721Z,17.50
2018-02-06T01:56:27.386Z,16.98
2018-02-06T01:58:56.103Z,19.27
2018-02-06T02:01:24.765Z,16.43
2018-02-06T02:03:53.438Z,16.17
2018-02-06T02:06:22.293Z,17.05
2018-02-06T02:08:51.481Z,18.03
2018-02-06T02:11:20.914Z,15.57
2018-02-06T02:13:49.569Z,16.17
2018-02-06T02:16:17.954Z,17.83
2018-02-06T02:18:46.423Z,17.87
2018-02-06T02:21:15.749Z,18.57
2018-02-06T02:23:44.409Z,15.68
2018-02-06T02:26:12.793Z,17.50
2018-02-06T02:28:41.185Z,17.30
2018-02-06T02:31:09.572Z,18.03
2018-02-06T02:33:38.248Z,15.70
2018-02-06T02:36:07.049Z,19.12
2018-02-06T02:38:35.442Z,17.43
2018-02-06T02:41:03.846Z,19.70
2018-02-06T04:40:01.062Z,18.85
2018-02-06T04:42:29.728Z,18.65
2018-02-06T04:44:57.929Z,18.77
2018-02-06T04:47:26.321Z,17.97
2018-02-06T04:49:54.802Z,19.40
2018-02-06T04:52:23.182Z,19.63
2018-02-06T04:54:52.572Z,18.48
2018-02-06T04:57:21.242Z,20.23
2018-02-06T04:59:49.644Z,18.07
2018-02-06T05:02:18.302Z,19.25
2018-02-06T05:04:46.935Z,18.83
2018-02-06T05:07:15.594Z,20.52
2018-02-06T05:09:44.266Z,18.60
2018-02-06T05:12:12.674Z,19.03
2018-02-06T05:14:41.343Z,18.42
2018-02-06T05:17:09.921Z,19.20
2018-02-06T05:19:38.309Z,19.23
2018-02-06T05:22:06.865Z,19.37
2018-02-06T05:24:35.259Z,18.13
2018-02-06T05:27:03.573Z,18.83
2018-02-06T05:29:32.129Z,19.50
2018-02-06T05:32:00.779Z,18.55
2018-02-06T05:34:29.156Z,20.10
2018-02-06T05:36:57.537Z,20.47
2018-02-06T05:39:26.321Z,21.10
2018-02-06T05:41:55.752Z,18.85
2018-02-06T05:44:24.416Z,20.30
2018-02-06T05:46:53.077Z,19.90
2018-02-06T05:49:21.784Z,18.80
2018-02-06T05:51:50.450Z,18.60
2018-02-06T05:54:19.881Z,17.33
2018-02-06T05:56:48.328Z,19.93
2018-02-06T05:59:16.748Z,17.37
2018-02-06T06:01:45.495Z,20.58
2018-02-06T06:04:14.938Z,21.70
2018-02-06T06:06:43.606Z,19.40
2018-02-06T06:09:12.266Z,21.50
2018-02-06T06:11:40.654Z,20.23
2018-02-06T06:14:09.034Z,22.60
2018-02-06T06:16:37.842Z,20.45
2018-02-06T06:19:06.550Z,21.87
2018-02-06T06:21:34.946Z,20.03
2018-02-06T06:24:03.150Z,19.97
2018-02-06T06:26:31.697Z,21.33
2018-02-06T06:29:00.310Z,19.67
2018-02-06T06:31:29.741Z,21.40
2018-02-06T06:33:58.244Z,20.00
2018-02-06T06:36:26.849Z,20.30
2018-02-06T06:38:55.453Z,20.73
2018-02-06T06:41:23.941Z,18.63
2018-02-06T06:43:52.345Z,20.40
2018-02-06T06:46:20.964Z,19.00
2018-02-06T06:48:50.025Z,19.30
2018-02-06T06:51:18.396Z,19.43
2018-02-06T06:53:47.063Z,19.10
2018-02-06T06:56:15.687Z,21.57
2018-02-06T06:58:44.964Z,21.30
2018-02-06T07:01:14.239Z,19.33
2018-02-06T07:03:43.691Z,20.37
2018-02-06T07:06:13.993Z,19.00
2018-02-06T07:08:42.385Z,19.70
2018-02-06T07:11:10.793Z,20.20
2018-02-06T07:13:39.277Z,19.40
2018-02-06T07:16:07.750Z,20.80
2018-02-06T07:18:36.177Z,19.60
2018-02-06T07:21:04.768Z,20.90
2018-02-06T07:23:33.350Z,20.03
2018-02-06T07:26:01.738Z,19.40
2018-02-06T07:28:30.136Z,20.57
2018-02-06T07:30:58.798Z,19.80
2018-02-06T07:33:27.462Z,20.92
2018-02-06T07:35:56.105Z,22.23
2018-02-06T07:38:25.259Z,21.43
2018-02-06T07:40:53.645Z,20.77
2018-02-06T07:43:22.034Z,20.60
2018-02-06T07:45:51.194Z,20.20
2018-02-06T07:48:19.402Z,20.67
2018-02-06T07:50:48.070Z,20.90
2018-02-06T07:53:16.725Z,19.05
2018-02-06T07:55:45.326Z,21.27
2018-02-06T07:58:13.981Z,20.85
2018-02-06T08:00:42.373Z,20.60
2018-02-06T08:03:10.873Z,21.20
2018-02-06T08:05:39.551Z,20.23
2018-02-06T08:08:07.545Z,19.85
2018-02-06T08:10:35.935Z,17.97
2018-02-06T08:13:04.555Z,19.57
2018-02-06T08:15:33.098Z,21.00
2018-02-06T08:18:01.791Z,20.97
2018-02-06T08:20:31.438Z,19.43
2018-02-06T08:23:00.476Z,19.30
2018-02-06T08:25:28.865Z,19.50
2018-02-06T08:27:57.266Z,21.10
2018-02-06T08:30:25.694Z,19.20
2018-02-06T08:32:54.454Z,20.83
2018-02-06T08:35:22.994Z,21.27
2018-02-06T08:37:51.654Z,19.30
2018-02-06T08:40:20.154Z,19.60
2018-02-06T08:42:48.538Z,19.87
2018-02-06T08:45:16.926Z,19.30
2018-02-06T08:47:46.078Z,17.97
2018-02-06T08:50:14.455Z,17.37
2018-02-06T08:52:43.122Z,18.30
2018-02-06T08:55:12.349Z,19.17
2018-02-06T08:57:41.010Z,18.95
2018-02-06T09:00:09.473Z,17.67
2018-02-06T09:02:38.929Z,20.05
2018-02-06T09:05:07.577Z,20.25
2018-02-06T09:07:36.117Z,20.50
2018-02-06T09:10:04.799Z,20.62
2018-02-06T09:12:33.377Z,18.67
2018-02-06T09:15:02.267Z,19.30
2018-02-06T09:17:30.990Z,20.00
2018-02-06T09:19:59.469Z,20.57
2018-02-06T09:22:27.867Z,19.60
2018-02-06T09:24:56.481Z,20.23
2018-02-06T09:27:24.865Z,21.70
2018-02-06T09:29:53.403Z,18.47
2018-02-06T09:32:22.287Z,19.63
2018-02-06T09:34:51.198Z,19.53
2018-02-06T09:37:19.587Z,18.57
2018-02-06T09:39:48.084Z,18.60
2018-02-06T09:42:16.734Z,19.33
2018-02-06T09:44:45.126Z,20.07
2018-02-06T09:47:13.714Z,18.77
2018-02-06T09:49:42.225Z,20.00
2018-02-06T09:52:10.880Z,18.60
2018-02-06T09:54:39.718Z,18.52
2018-02-06T09:57:09.146Z,18.83
2018-02-06T09:59:38.871Z,17.37
2018-02-06T10:02:07.530Z,17.08
2018-02-06T10:04:36.958Z,15.65
2018-02-06T10:07:05.507Z,18.43
2018-02-06T10:09:33.898Z,16.07
2018-02-06T10:12:02.562Z,16.20
2018-02-06T10:14:31.402Z,17.57
2018-02-06T10:16:59.996Z,16.37
2018-02-06T10:19:28.737Z,15.80
2018-02-06T10:21:58.146Z,16.63
2018-02-06T10:24:26.854Z,16.23
2018-02-06T10:26:55.677Z,15.60
2018-02-06T10:29:24.077Z,17.77
2018-02-06T10:31:52.824Z,19.80
2018-02-06T10:34:21.269Z,17.17
2018-02-06T10:36:50.573Z,16.53
2018-02-06T10:39:19.180Z,17.73
2018-02-06T10:41:47.736Z,17.60
2018-02-06T10:44:16.916Z,17.37
2018-02-06T10:46:45.631Z,17.48
2018-02-06T10:49:14.157Z,17.87
2018-02-06T10:51:43.104Z,16.65
2018-02-06T10:54:11.756Z,17.77
2018-02-06T10:56:41.180Z,16.20
2018-02-06T10:59:09.832Z,15.67
2018-02-06T11:01:39.250Z,15.20
2018-02-06T11:04:07.894Z,15.70
2018-02-06T11:06:36.563Z,16.47
2018-02-06T11:09:04.388Z,16.37
2018-02-06T11:11:33.684Z,17.20
2018-02-06T11:14:02.272Z,17.40
2018-02-06T11:16:30.658Z,17.07
2018-02-06T11:18:59.036Z,16.53
2018-02-06T11:21:27.421Z,18.20
2018-02-06T11:23:56.101Z,15.52
2018-02-06T11:26:25.691Z,18.23
2018-02-06T11:28:54.256Z,17.83
2018-02-06T11:31:22.654Z,16.60
2018-02-06T11:33:52.041Z,17.03
2018-02-06T11:36:20.468Z,16.70
2018-02-06T11:38:48.869Z,16.27
2018-02-06T11:41:18.001Z,17.03
2018-02-06T11:43:46.671Z,16.45
2018-02-06T11:46:15.644Z,16.30
2018-02-06T11:48:44.097Z,16.73
2018-02-06T11:51:14.037Z,16.80
2018-02-06T11:53:42.548Z,17.50
2018-02-06T11:56:11.937Z,16.13
2018-02-06T11:58:40.361Z,16.23
2018-02-06T12:01:08.541Z,17.20
2018-02-06T12:03:37.889Z,16.43
2018-02-06T12:06:06.273Z,16.40
2018-02-06T12:08:34.865Z,16.00
2018-02-06T12:11:03.236Z,17.07
2018-02-06T12:13:31.621Z,17.30
2018-02-06T12:16:00.309Z,17.60
2018-02-06T12:18:28.929Z,17.93
2018-02-06T12:20:58.084Z,18.30
2018-02-06T12:23:26.464Z,17.50
2018-02-06T12:25:54.966Z,19.43
2018-02-06T12:28:23.341Z,19.07
2018-02-06T12:30:51.994Z,18.60
2018-02-06T12:33:20.504Z,18.03
2018-02-06T12:35:48.904Z,19.10
2018-02-06T12:38:17.089Z,18.30
2018-02-06T12:40:45.865Z,19.70
2018-02-06T12:43:14.741Z,18.50
2018-02-06T12:45:43.127Z,19.47
2018-02-06T12:48:11.513Z,18.63
2018-02-06T12:50:40.401Z,17.20
2018-02-06T12:53:08.769Z,18.40
2018-02-06T12:55:37.153Z,18.53
2018-02-06T12:58:05.669Z,18.90
2018-02-06T13:00:34.059Z,19.20
2018-02-06T13:03:04.093Z,18.20
2018-02-06T13:05:33.296Z,19.30
2018-02-06T13:08:01.676Z,16.57
2018-02-06T13:10:30.140Z,17.37
2018-02-06T13:12:58.507Z,18.13
2018-02-06T13:15:27.545Z,18.47
2018-02-06T13:17:55.960Z,18.00
2018-02-06T13:20:24.608Z,18.03
2018-02-06T13:22:52.986Z,18.60
2018-02-06T13:25:21.488Z,18.27
2018-02-06T13:27:50.112Z,16.20
2018-02-06T13:30:18.891Z,17.63
2018-02-06T13:32:48.304Z,19.40
2018-02-06T13:35:16.969Z,16.98
2018-02-06T13:37:45.414Z,17.10
2018-02-06T13:40:14.093Z,18.90
2018-02-06T13:42:43.363Z,16.40
2018-02-06T13:45:11.761Z,18.33
2018-02-06T13:47:40.481Z,18.80
2018-02-06T13:50:09.209Z,18.33
2018-02-06T13:52:37.893Z,16.93
2018-02-06T13:55:06.074Z,17.47
2018-02-06T13:57:40.591Z,17.90
2018-02-06T14:00:08.631Z,17.27
2018-02-06T14:02:37.293Z,17.50
2018-02-06T14:05:06.442Z,17.10
2018-02-06T14:07:35.658Z,19.00
2018-02-06T14:10:03.506Z,15.93
2018-02-06T14:12:31.995Z,16.65
2018-02-06T14:15:00.706Z,17.05
2018-02-06T14:17:29.365Z,16.17
2018-02-06T14:19:57.753Z,17.10
2018-02-06T14:22:27.442Z,17.57
2018-02-06T14:24:56.101Z,16.10
2018-02-06T14:27:24.513Z,16.93
2018-02-06T14:29:53.174Z,13.48
2018-02-06T14:32:21.553Z,17.00
2018-02-06T14:34:50.243Z,15.55
2018-02-06T14:37:22.281Z,14.73
2018-02-06T14:39:50.675Z,15.50
2018-02-06T14:42:19.297Z,16.40
2018-02-06T14:44:48.949Z,16.10
2018-02-06T14:47:17.607Z,15.05
2018-02-06T14:49:46.013Z,15.40
2018-02-06T14:52:14.671Z,15.47
2018-02-06T14:54:43.305Z,15.90
2018-02-06T14:57:11.971Z,15.02
2018-02-06T14:59:40.631Z,14.38
2018-02-06T15:02:09.487Z,14.90
2018-02-06T15:04:38.034Z,15.40
2018-02-06T15:07:06.411Z,14.53
2018-02-06T15:09:34.782Z,14.77
2018-02-06T15:12:03.168Z,15.03
2018-02-06T15:14:32.596Z,12.87
2018-02-06T15:17:01.104Z,14.30
2018-02-06T15:19:29.915Z,14.57
2018-02-06T15:21:58.632Z,13.87
2018-02-06T15:24:27.218Z,13.60
2018-02-06T15:26:55.610Z,13.90
2018-02-06T15:29:24.198Z,14.17
2018-02-06T15:31:52.574Z,12.40
2018-02-06T15:34:20.966Z,12.23
2018-02-06T15:36:49.373Z,13.00
2018-02-06T15:39:17.821Z,14.30
2018-02-06T15:41:46.474Z,13.62
2018-02-06T15:44:14.852Z,13.53
2018-02-06T15:46:43.233Z,13.87
2018-02-06T15:49:12.234Z,15.00
2018-02-06T15:51:40.793Z,12.13
2018-02-06T15:54:09.310Z,15.00
2018-02-06T15:56:37.957Z,14.53
2018-02-06T15:59:06.529Z,13.77
2018-02-06T16:01:34.965Z,14.83
2018-02-06T16:04:03.565Z,14.20
2018-02-06T16:06:32.711Z,15.83
2018-02-06T16:09:01.081Z,15.70
2018-02-06T16:11:29.469Z,14.30
2018-02-06T16:13:58.897Z,13.33
2018-02-06T16:16:27.568Z,14.65
2018-02-06T16:18:55.973Z,15.27
2018-02-06T16:21:24.559Z,13.67
2018-02-06T16:23:53.326Z,15.40
2018-02-06T16:26:22.178Z,15.63
2018-02-06T16:28:51.109Z,14.75
2018-02-06T16:31:20.056Z,17.12
2018-02-06T16:33:49.151Z,15.70
2018-02-06T16:36:18.567Z,16.20
2018-02-06T16:38:46.954Z,15.90
2018-02-06T16:41:15.334Z,15.77
2018-02-06T16:43:43.722Z,14.90
2018-02-06T16:46:11.461Z,14.73
2018-02-06T16:48:40.136Z,14.30
2018-02-06T16:51:08.514Z,16.37
2018-02-06T16:53:36.902Z,15.67
2018-02-06T16:56:05.090Z,15.83
2018-02-06T16:58:33.749Z,15.43
2018-02-06T17:01:02.166Z,15.00
2018-02-06T17:03:30.837Z,15.75
2018-02-06T17:05:59.232Z,15.60
2018-02-06T17:08:27.617Z,17.37
2018-02-06T17:10:56.043Z,15.77
2018-02-06T17:13:24.765Z,16.55
2018-02-06T17:15:53.169Z,15.10
2018-02-06T17:18:21.595Z,15.80
2018-02-06T17:20:50.036Z,16.37
2018-02-06T17:23:18.706Z,17.67
2018-02-06T17:25:47.367Z,15.90
2018-02-06T17:28:15.816Z,16.80
2018-02-06T17:30:44.190Z,17.40
2018-02-06T17:33:12.389Z,17.10
2018-02-06T17:35:40.776Z,15.97
2018-02-06T17:38:09.158Z,17.57
2018-02-06T17:40:37.819Z,17.23
2018-02-06T17:43:06.210Z,16.70
2018-02-06T17:45:34.871Z,19.00
2018-02-06T17:48:03.518Z,17.57
2018-02-06T17:50:32.782Z,17.00
2018-02-06T17:53:02.730Z,17.48
2018-02-06T17:55:31.397Z,18.75
2018-02-06T17:58:00.290Z,16.27
2018-02-06T18:00:28.953Z,18.00
2018-02-06T18:02:57.341Z,17.57
2018-02-06T18:05:25.901Z,16.97
2018-02-06T18:07:54.561Z,17.17
2018-02-06T18:10:23.221Z,18.48
2018-02-06T18:12:52.385Z,16.07
2018-02-06T18:15:20.941Z,16.90
2018-02-06T18:17:50.357Z,17.92
2018-02-06T18:20:19.029Z,17.70
2018-02-06T18:22:47.593Z,18.03
2018-02-06T18:25:16.261Z,19.00
2018-02-06T18:27:44.933Z,16.07
2018-02-06T18:30:13.620Z,17.60
2018-02-06T18:32:42.123Z,18.03
2018-02-06T18:35:10.453Z,17.25
2018-02-06T18:37:39.120Z,17.05
2018-02-06T18:40:07.797Z,18.08
2018-02-06T18:42:36.464Z,17.05
2018-02-06T18:45:05.370Z,17.97
2018-02-06T18:47:33.858Z,19.40
2018-02-06T18:50:02.562Z,17.80
2018-02-06T18:52:31.862Z,17.57
2018-02-06T18:55:00.250Z,17.57
2018-02-06T18:57:28.910Z,20.07
2018-02-06T18:59:57.582Z,16.57
2018-02-06T19:02:26.020Z,17.90
2018-02-06T19:04:54.746Z,18.75
2018-02-06T19:07:23.309Z,18.10
2018-02-06T19:09:51.530Z,18.47
2018-02-06T19:12:19.955Z,17.83
2018-02-06T19:14:49.309Z,17.17
2018-02-06T19:17:17.748Z,17.17
2018-02-06T19:19:46.965Z,17.40
2018-02-06T19:22:15.731Z,17.08
2018-02-06T19:24:44.559Z,16.50
2018-02-06T19:27:13.141Z,17.50
2018-02-06T19:29:41.823Z,20.10
2018-02-06T19:32:10.143Z,18.48
2018-02-06T19:34:38.791Z,19.60
2018-02-06T19:37:07.583Z,20.58
2018-02-06T19:39:36.161Z,18.47
2018-02-06T19:42:04.828Z,18.27
2018-02-06T19:44:33.486Z,19.27
2018-02-06T19:47:02.139Z,17.87
2018-02-06T19:49:30.983Z,17.73
2018-02-06T19:51:59.364Z,19.60
2018-02-06T19:54:27.745Z,18.77
2018-02-06T19:56:56.838Z,18.47
2018-02-06T19:59:25.289Z,18.63
2018-02-06T20:01:54.097Z,18.97
2018-02-06T20:04:22.638Z,19.43
2018-02-06T20:06:51.098Z,20.33
2018-02-06T20:09:20.472Z,21.73
2018-02-06T20:11:49.313Z,21.33
2018-02-06T20:14:17.709Z,19.43
2018-02-06T20:16:46.094Z,22.17
2018-02-06T20:19:14.590Z,20.53
2018-02-06T20:21:43.270Z,18.83
2018-02-06T20:24:11.657Z,19.67
2018-02-06T20:26:40.043Z,19.57
2018-02-06T20:29:08.437Z,20.47
2018-02-06T20:31:36.633Z,20.27
2018-02-06T20:34:05.049Z,18.77
2018-02-06T20:36:34.373Z,19.07
2018-02-06T20:39:02.915Z,21.80
2018-02-06T20:41:32.119Z,20.67
2018-02-06T20:44:01.596Z,19.98
2018-02-06T20:46:31.049Z,21.27
2018-02-06T20:48:59.437Z,22.57
2018-02-06T20:51:28.146Z,19.80
2018-02-06T20:53:56.804Z,19.62
2018-02-06T20:56:26.225Z,20.73
2018-02-06T20:58:54.623Z,19.60
2018-02-06T21:01:23.768Z,21.23
2018-02-06T21:03:52.176Z,21.13
2018-02-06T21:06:21.057Z,20.77
2018-02-06T21:08:49.728Z,21.87
2018-02-06T21:11:18.172Z,21.43
2018-02-06T21:13:46.714Z,21.20
2018-02-06T21:16:15.718Z,22.77
2018-02-06T21:18:44.859Z,20.77
2018-02-06T21:21:13.314Z,20.20
2018-02-06T21:23:41.518Z,22.77
2018-02-06T21:26:09.894Z,21.47
2018-02-06T21:28:39.202Z,19.20
2018-02-06T21:31:07.582Z,20.03
2018-02-06T21:33:36.246Z,20.25
2018-02-06T21:36:05.476Z,23.27
2018-02-06T21:38:33.870Z,19.67
2018-02-06T21:41:02.254Z,21.07
2018-02-06T21:43:31.430Z,22.07
2018-02-06T21:45:59.810Z,21.73
2018-02-06T21:48:28.189Z,22.53
2018-02-06T21:50:56.849Z,20.33
2018-02-06T21:53:25.437Z,21.50
2018-02-06T21:55:54.837Z,19.47
2018-02-06T21:58:23.245Z,23.40
2018-02-06T22:00:52.023Z,22.80
2018-02-06T22:03:20.711Z,22.20
2018-02-06T22:05:49.857Z,21.27
2018-02-06T22:08:18.229Z,20.73
2018-02-06T22:10:46.623Z,20.33
2018-02-06T22:13:15.027Z,22.00
2018-02-06T22:15:43.409Z,19.97
2018-02-06T22:18:11.798Z,22.03
2018-02-06T22:20:40.190Z,22.87
2018-02-06T22:23:09.346Z,21.90
2018-02-06T22:25:37.742Z,22.40
2018-02-06T22:28:06.282Z,21.60
2018-02-06T22:30:34.705Z,21.63
2018-02-06T22:33:03.126Z,19.70
2018-02-06T22:35:31.682Z,21.47
2018-02-06T22:38:00.830Z,22.10
2018-02-06T22:40:29.326Z,22.40
2018-02-06T22:42:57.985Z,22.30
2018-02-06T22:45:26.505Z,21.70
2018-02-06T22:47:55.179Z,22.60
2018-02-06T22:50:23.562Z,21.87
2018-02-06T22:52:52.245Z,23.60
2018-02-06T22:55:20.910Z,20.90
2018-02-06T22:57:49.533Z,21.87
2018-02-06T23:00:22.922Z,21.90
2018-02-06T23:02:51.685Z,20.92
2018-02-06T23:05:20.390Z,20.87
2018-02-06T23:07:48.777Z,22.00
2018-02-06T23:10:17.438Z,21.90
2018-02-06T23:12:45.825Z,20.90
2018-02-06T23:15:14.473Z,22.87
2018-02-06T23:17:43.137Z,22.90
2018-02-06T23:20:11.517Z,22.00
2018-02-06T23:22:40.237Z,21.53
2018-02-06T23:25:08.633Z,20.77
2018-02-06T23:27:37.010Z,21.13
2018-02-06T23:30:05.681Z,24.30
2018-02-06T23:32:34.269Z,24.10
2018-02-06T23:35:02.714Z,23.27
2018-02-06T23:37:31.106Z,23.23
2018-02-06T23:39:59.486Z,22.37
2018-02-06T23:42:27.870Z,23.23
2018-02-06T23:44:56.306Z,21.47
2018-02-06T23:47:25.262Z,23.87
2018-02-06T23:49:53.656Z,23.17
2018-02-06T23:52:22.038Z,23.00
2018-02-06T23:54:51.190Z,21.30
2018-02-06T23:57:20.200Z,22.07
2018-02-06T23:59:48.593Z,21.20
